Time;durP1;ratioP1;P1;durP2;ratioP2;P2;SDS_P1;SDS_P2;PMS_P1;PMS_P2;Temp;Humidity;BMP_temperature;BMP_pressure;BME280_temperature;BME280_humidity;BME280_pressure;Samples;Min_cycle;Max_cycle;Signal;HPM_P1;HPM_P2
2021/10/13 00:01:48;;;;;;;;;;;8.10;99.90;;;;;;1954107;72;20166;-74
2021/10/13 00:04:15;;;;;;;;;;;8.20;99.90;;;;;;1951682;72;20179;-72
2021/10/13 00:06:42;;;;;;;;;;;8.10;99.90;;;;;;1948240;73;20171;-73
2021/10/13 00:09:08;;;;;;;;;;;8.20;99.90;;;;;;1955356;72;20387;-73
2021/10/13 00:11:35;;;;;;;;;;;8.10;99.90;;;;;;1957623;72;20158;-71
2021/10/13 00:14:02;;;;;;;;;;;8.10;99.90;;;;;;1953934;72;20157;-73
2021/10/13 00:16:34;;;;;;;;;;;8.30;99.90;;;;;;1970629;71;20645;-73
2021/10/13 00:18:57;;;;;;;;;;;8.30;99.90;;;;;;1967466;72;20177;-73
2021/10/13 00:21:24;;;;;;;;;;;8.20;99.90;;;;;;1969429;71;20173;-73
2021/10/13 00:23:52;;;;;;;;;;;8.30;99.90;;;;;;1971117;71;20234;-72
2021/10/13 00:26:18;;;;;;;;;;;8.30;99.90;;;;;;1976731;71;20170;-71
2021/10/13 00:28:45;;;;;;;;;;;8.20;99.90;;;;;;1966183;72;20159;-72
2021/10/13 00:31:12;;;;;;;;;;;8.20;99.90;;;;;;1972213;71;20413;-71
2021/10/13 00:33:39;;;;;;;;;;;8.30;99.90;;;;;;1970075;72;20206;-71
2021/10/13 00:36:06;;;;;;;;;;;8.20;99.90;;;;;;1965013;72;20121;-72
2021/10/13 00:38:32;;;;;;;;;;;8.30;99.90;;;;;;1959478;72;20485;-70
2021/10/13 00:40:59;;;;;;;;;;;8.30;99.90;;;;;;1962194;72;20115;-74
2021/10/13 00:43:26;;;;;;;;;;;8.30;99.90;;;;;;1969781;71;20209;-70
2021/10/13 00:45:55;;;;;;;;;;;8.30;99.90;;;;;;1969549;71;20193;-70
2021/10/13 00:48:21;;;;;;;;;;;8.40;99.90;;;;;;1969869;72;20424;-73
2021/10/13 00:50:48;;;;;;;;;;;8.40;99.90;;;;;;1972616;71;20165;-74
2021/10/13 00:53:16;;;;;;;;;;;8.50;99.90;;;;;;1969197;71;20176;-74
2021/10/13 00:55:43;;;;;;;;;;;8.40;99.90;;;;;;1970430;72;20175;-72
2021/10/13 00:58:10;;;;;;;;;;;8.40;99.90;;;;;;1965428;72;20237;-73
2021/10/13 01:00:38;;;;;;;;;;;8.40;99.90;;;;;;1972144;71;20190;-73
2021/10/13 01:03:09;;;;;;;;;;;8.50;99.90;;;;;;1969615;71;20199;-72
2021/10/13 01:05:43;;;;;;;;;;;8.50;99.90;;;;;;1968497;72;20213;-72
2021/10/13 01:08:15;;;;;;;;;;;8.60;99.90;;;;;;1966620;72;20211;-73
2021/10/13 01:10:55;;;;;;;;;;;8.60;99.90;;;;;;1969827;71;20225;-74
2021/10/13 01:13:27;;;;;;;;;;;8.60;99.90;;;;;;1965779;72;20169;-74
2021/10/13 01:15:55;;;;;;;;;;;8.60;99.90;;;;;;1963535;72;20222;-73
2021/10/13 01:18:32;;;;;;;;;;;8.70;99.90;;;;;;1970004;71;20162;-74
2021/10/13 01:21:07;;;;;;;;;;;8.70;99.90;;;;;;1964594;71;20432;-73
2021/10/13 01:23:35;;;;;;;;;;;8.70;99.90;;;;;;1969871;72;20143;-72
2021/10/13 01:26:04;;;;;;;;;;;8.80;99.90;;;;;;1968390;71;20126;-72
2021/10/13 01:28:31;;;;;;;;;;;8.70;99.90;;;;;;1966961;72;20194;-71
2021/10/13 01:31:00;;;;;;;;;;;8.70;99.90;;;;;;1968307;71;20166;-72
2021/10/13 01:33:28;;;;;;;;;;;8.70;99.90;;;;;;1971748;71;20350;-71
2021/10/13 01:35:56;;;;;;;;;;;8.80;99.90;;;;;;1966296;71;20283;-74
2021/10/13 01:38:25;;;;;;;;;;;8.70;99.90;;;;;;1967436;71;20480;-70
2021/10/13 01:40:53;;;;;;;;;;;8.70;99.90;;;;;;1975050;71;20193;-73
2021/10/13 01:43:21;;;;;;;;;;;8.80;99.90;;;;;;1968884;72;20169;-73
2021/10/13 01:45:49;;;;;;;;;;;8.70;99.90;;;;;;1963779;72;20180;-72
2021/10/13 01:48:16;;;;;;;;;;;8.60;99.90;;;;;;1966932;72;20439;-74
2021/10/13 01:50:44;;;;;;;;;;;8.60;99.90;;;;;;1893706;72;20908;-74
2021/10/13 01:53:12;;;;;;;;;;;8.50;99.90;;;;;;1859187;77;20220;-74
2021/10/13 01:55:39;;;;;;;;;;;8.70;99.90;;;;;;1871623;76;20236;-74
2021/10/13 01:58:07;;;;;;;;;;;8.60;99.90;;;;;;1892466;74;20220;-74
2021/10/13 02:00:34;;;;;;;;;;;8.70;99.90;;;;;;1887860;74;20163;-73
2021/10/13 02:03:02;;;;;;;;;;;8.60;99.90;;;;;;1908862;74;20220;-73
2021/10/13 02:05:29;;;;;;;;;;;8.60;99.90;;;;;;1898519;75;20125;-72
2021/10/13 02:07:57;;;;;;;;;;;8.60;99.90;;;;;;1898077;75;20226;-73
2021/10/13 02:10:25;;;;;;;;;;;8.50;99.90;;;;;;1902977;74;20114;-72
2021/10/13 02:12:53;;;;;;;;;;;8.50;99.90;;;;;;1906725;75;20114;-73
2021/10/13 02:15:21;;;;;;;;;;;8.50;99.90;;;;;;1906843;75;20228;-72
2021/10/13 02:17:50;;;;;;;;;;;8.40;99.90;;;;;;1900725;74;20204;-73
2021/10/13 02:20:17;;;;;;;;;;;8.30;99.90;;;;;;1885506;76;20230;-73
2021/10/13 02:22:46;;;;;;;;;;;8.40;99.90;;;;;;1908498;75;20536;-72
2021/10/13 02:25:13;;;;;;;;;;;8.40;99.90;;;;;;1923433;73;20162;-74
2021/10/13 02:27:41;;;;;;;;;;;8.30;99.90;;;;;;1902924;74;20263;-74
2021/10/13 02:30:08;;;;;;;;;;;8.30;99.90;;;;;;1888485;75;20167;-73
2021/10/13 02:32:35;;;;;;;;;;;8.20;99.90;;;;;;1886006;76;20167;-73
2021/10/13 02:35:03;;;;;;;;;;;8.00;99.90;;;;;;1883976;74;20212;-73
2021/10/13 02:37:30;;;;;;;;;;;8.10;99.90;;;;;;1906009;75;20610;-73
2021/10/13 02:39:57;;;;;;;;;;;8.20;99.90;;;;;;1905923;74;20224;-73
2021/10/13 02:42:24;;;;;;;;;;;8.20;99.90;;;;;;1906302;75;20411;-73
2021/10/13 02:44:51;;;;;;;;;;;8.10;99.90;;;;;;1907290;74;20236;-73
2021/10/13 02:47:28;;;;;;;;;;;8.00;99.90;;;;;;1904739;75;20248;-73
2021/10/13 02:49:59;;;;;;;;;;;8.10;99.90;;;;;;1904080;75;20209;-72
2021/10/13 02:52:27;;;;;;;;;;;8.10;99.90;;;;;;1906020;75;20158;-73
2021/10/13 02:54:55;;;;;;;;;;;8.00;99.90;;;;;;1902966;74;20116;-73
2021/10/13 02:57:23;;;;;;;;;;;8.00;99.90;;;;;;1901894;75;20490;-73
2021/10/13 02:59:51;;;;;;;;;;;7.90;99.90;;;;;;1900758;75;20560;-73
2021/10/13 03:02:20;;;;;;;;;;;7.80;99.90;;;;;;1898213;74;20133;-73
2021/10/13 03:04:48;;;;;;;;;;;7.80;99.90;;;;;;1913004;73;20174;-72
2021/10/13 03:07:16;;;;;;;;;;;7.70;99.90;;;;;;1900082;75;20532;-73
2021/10/13 03:09:48;;;;;;;;;;;7.80;99.90;;;;;;1901740;75;20220;-73
2021/10/13 03:12:15;;;;;;;;;;;7.70;99.90;;;;;;1905234;74;20103;-74
2021/10/13 03:14:42;;;;;;;;;;;7.90;99.90;;;;;;1905212;75;20280;-73
2021/10/13 03:17:09;;;;;;;;;;;7.90;99.90;;;;;;1904553;75;20378;-73
2021/10/13 03:19:37;;;;;;;;;;;7.80;99.90;;;;;;1903539;75;20442;-73
2021/10/13 03:22:05;;;;;;;;;;;7.70;99.90;;;;;;1919083;73;20170;-73
2021/10/13 03:24:31;;;;;;;;;;;7.70;99.90;;;;;;1899492;75;20320;-73
2021/10/13 03:26:58;;;;;;;;;;;7.60;99.90;;;;;;1898441;75;20183;-74
2021/10/13 03:29:25;;;;;;;;;;;7.70;99.90;;;;;;1901836;75;20247;-74
2021/10/13 03:31:52;;;;;;;;;;;7.70;99.90;;;;;;1905075;74;20199;-73
2021/10/13 03:34:19;;;;;;;;;;;7.70;99.90;;;;;;1904403;75;20183;-72
2021/10/13 03:36:47;;;;;;;;;;;7.60;99.90;;;;;;1885786;76;20149;-74
2021/10/13 03:39:14;;;;;;;;;;;7.50;99.90;;;;;;1898682;75;20174;-73
2021/10/13 03:41:41;;;;;;;;;;;7.60;99.90;;;;;;1904507;74;20205;-73
2021/10/13 03:44:08;;;;;;;;;;;7.60;99.90;;;;;;1902045;75;20168;-73
2021/10/13 03:46:37;;;;;;;;;;;7.60;99.90;;;;;;1898954;75;20160;-73
2021/10/13 03:49:04;;;;;;;;;;;7.60;99.90;;;;;;1901741;75;20169;-76
2021/10/13 03:51:31;;;;;;;;;;;7.70;99.90;;;;;;1881876;74;20177;-75
2021/10/13 03:53:57;;;;;;;;;;;7.70;99.90;;;;;;1914578;74;20506;-76
2021/10/13 03:56:24;;;;;;;;;;;7.60;99.90;;;;;;1915985;74;20218;-75
2021/10/13 03:58:51;;;;;;;;;;;7.70;99.90;;;;;;1917643;74;20207;-75
2021/10/13 04:01:18;;;;;;;;;;;7.70;99.90;;;;;;1919658;73;20611;-74
2021/10/13 04:03:45;;;;;;;;;;;7.70;99.90;;;;;;1920786;74;20174;-74
2021/10/13 04:06:11;;;;;;;;;;;7.70;99.90;;;;;;1914070;74;20180;-74
2021/10/13 04:08:38;;;;;;;;;;;7.80;99.90;;;;;;1914392;74;20180;-76
2021/10/13 04:11:05;;;;;;;;;;;7.70;99.90;;;;;;1917148;73;20187;-76
2021/10/13 04:13:32;;;;;;;;;;;7.70;99.90;;;;;;1919314;74;20142;-76
2021/10/13 04:15:59;;;;;;;;;;;7.60;99.90;;;;;;1918798;74;20580;-76
2021/10/13 04:18:26;;;;;;;;;;;7.60;99.90;;;;;;1915924;74;20172;-75
2021/10/13 04:20:52;;;;;;;;;;;7.60;99.90;;;;;;1917777;74;20340;-76
2021/10/13 04:23:19;;;;;;;;;;;7.60;99.90;;;;;;1923874;74;20454;-74
2021/10/13 04:25:46;;;;;;;;;;;7.50;99.90;;;;;;1914782;74;20208;-75
2021/10/13 04:28:13;;;;;;;;;;;7.40;99.90;;;;;;1918325;74;20268;-76
2021/10/13 04:30:40;;;;;;;;;;;7.40;99.90;;;;;;1914649;74;20182;-76
2021/10/13 04:33:07;;;;;;;;;;;7.60;99.90;;;;;;1914957;73;20133;-74
2021/10/13 04:35:33;;;;;;;;;;;7.50;99.90;;;;;;1916422;74;20216;-74
2021/10/13 04:38:02;;;;;;;;;;;7.50;99.90;;;;;;1914230;74;20187;-72
2021/10/13 04:40:28;;;;;;;;;;;7.50;99.90;;;;;;1909430;74;20170;-72
2021/10/13 04:42:55;;;;;;;;;;;7.50;99.90;;;;;;1921791;73;20141;-73
2021/10/13 04:45:22;;;;;;;;;;;7.50;99.90;;;;;;1916504;74;20485;-73
2021/10/13 04:47:49;;;;;;;;;;;7.50;99.90;;;;;;1911393;74;20236;-74
2021/10/13 04:50:16;;;;;;;;;;;7.50;99.90;;;;;;1915410;74;20542;-73
2021/10/13 04:52:42;;;;;;;;;;;7.50;99.90;;;;;;1918459;74;20230;-73
2021/10/13 04:55:10;;;;;;;;;;;7.40;99.90;;;;;;1920840;73;20161;-73
2021/10/13 04:57:36;;;;;;;;;;;7.40;99.90;;;;;;1918014;74;20182;-73
2021/10/13 05:00:04;;;;;;;;;;;7.40;99.90;;;;;;1915877;73;20159;-74
2021/10/13 05:02:31;;;;;;;;;;;7.50;99.90;;;;;;1920474;73;20154;-73
2021/10/13 05:04:58;;;;;;;;;;;7.50;99.90;;;;;;1918327;74;20231;-73
2021/10/13 05:07:25;;;;;;;;;;;7.30;99.90;;;;;;1924917;73;20242;-73
2021/10/13 05:09:51;;;;;;;;;;;7.30;99.90;;;;;;1919765;73;20106;-74
2021/10/13 05:12:18;;;;;;;;;;;7.20;99.90;;;;;;1922650;73;20287;-76
2021/10/13 05:14:45;;;;;;;;;;;7.20;99.90;;;;;;1919815;73;20486;-73
2021/10/13 05:17:12;;;;;;;;;;;7.30;99.90;;;;;;1917809;73;20121;-75
2021/10/13 05:19:39;;;;;;;;;;;7.10;99.90;;;;;;1918081;73;20657;-76
2021/10/13 05:22:06;;;;;;;;;;;7.20;99.90;;;;;;1917321;74;20192;-75
2021/10/13 05:24:33;;;;;;;;;;;7.30;99.90;;;;;;1924719;73;20199;-74
2021/10/13 05:26:59;;;;;;;;;;;7.30;99.90;;;;;;1915583;73;20200;-75
2021/10/13 05:29:26;;;;;;;;;;;7.30;99.90;;;;;;1912693;74;20488;-75
2021/10/13 05:31:53;;;;;;;;;;;7.30;99.90;;;;;;1921406;73;20213;-75
2021/10/13 05:34:20;;;;;;;;;;;7.30;99.90;;;;;;1919257;73;20208;-74
2021/10/13 05:36:47;;;;;;;;;;;7.20;99.90;;;;;;1922941;74;20187;-74
2021/10/13 05:39:13;;;;;;;;;;;7.20;99.90;;;;;;1918237;73;20201;-78
2021/10/13 05:41:40;;;;;;;;;;;7.20;99.90;;;;;;1920872;73;20174;-76
2021/10/13 05:44:07;;;;;;;;;;;7.30;99.90;;;;;;1922971;73;20454;-76
2021/10/13 05:46:34;;;;;;;;;;;7.20;99.90;;;;;;1917528;74;20197;-76
2021/10/13 05:49:01;;;;;;;;;;;7.20;99.90;;;;;;1919359;74;20219;-77
2021/10/13 05:51:28;;;;;;;;;;;7.30;99.90;;;;;;1922724;73;20176;-76
2021/10/13 05:53:54;;;;;;;;;;;7.20;99.90;;;;;;1923089;73;20159;-77
2021/10/13 05:56:21;;;;;;;;;;;7.20;99.90;;;;;;1923332;74;20181;-77
2021/10/13 05:58:51;;;;;;;;;;;7.20;99.90;;;;;;1921267;74;20201;-77
2021/10/13 06:01:19;;;;;;;;;;;7.20;99.90;;;;;;1923952;73;20123;-76
2021/10/13 06:03:45;;;;;;;;;;;7.20;99.90;;;;;;1923996;73;20125;-76
2021/10/13 06:06:12;;;;;;;;;;;7.20;99.90;;;;;;1923428;73;20176;-77
2021/10/13 06:08:38;;;;;;;;;;;7.20;99.90;;;;;;1926940;73;20286;-75
2021/10/13 06:11:05;;;;;;;;;;;7.10;99.90;;;;;;1925690;74;20241;-75
2021/10/13 06:13:32;;;;;;;;;;;7.10;99.90;;;;;;1929064;73;20594;-75
2021/10/13 06:15:59;;;;;;;;;;;7.00;99.90;;;;;;1928698;73;20109;-74
2021/10/13 06:18:26;;;;;;;;;;;7.10;99.90;;;;;;1961302;72;20228;-74
2021/10/13 06:20:52;;;;;;;;;;;7.10;99.90;;;;;;1963666;72;20236;-75
2021/10/13 06:23:19;;;;;;;;;;;7.20;99.90;;;;;;1965975;72;20217;-75
2021/10/13 06:25:46;;;;;;;;;;;7.10;99.90;;;;;;1964835;73;20220;-76
2021/10/13 06:28:13;;;;;;;;;;;7.10;99.90;;;;;;1963222;71;20151;-75
2021/10/13 06:30:42;;;;;;;;;;;7.10;99.90;;;;;;1959542;73;20216;-76
2021/10/13 06:33:08;;;;;;;;;;;7.30;99.90;;;;;;1958348;72;20176;-75
2021/10/13 06:35:35;;;;;;;;;;;7.30;99.90;;;;;;1960814;72;20537;-76
2021/10/13 06:38:02;;;;;;;;;;;7.40;99.90;;;;;;1965817;72;20101;-75
2021/10/13 06:40:29;;;;;;;;;;;7.40;99.90;;;;;;1955811;72;20211;-76
2021/10/13 06:42:55;;;;;;;;;;;7.40;99.90;;;;;;1961210;72;20216;-77
2021/10/13 06:45:22;;;;;;;;;;;7.40;99.90;;;;;;1961110;72;20221;-77
2021/10/13 06:47:49;;;;;;;;;;;7.50;99.90;;;;;;1963260;72;20231;-75
2021/10/13 06:50:16;;;;;;;;;;;7.50;99.90;;;;;;1963171;71;20207;-77
2021/10/13 06:52:43;;;;;;;;;;;7.50;99.90;;;;;;1965301;72;20153;-76
2021/10/13 06:55:14;;;;;;;;;;;7.60;99.90;;;;;;1962648;72;20165;-75
2021/10/13 06:57:40;;;;;;;;;;;7.80;99.90;;;;;;1960303;72;20966;-76
2021/10/13 07:00:07;;;;;;;;;;;7.90;99.90;;;;;;1960552;72;20188;-76
2021/10/13 07:02:34;;;;;;;;;;;8.00;99.90;;;;;;1964136;72;20219;-75
2021/10/13 07:05:01;;;;;;;;;;;8.10;99.90;;;;;;1965218;72;20214;-76
2021/10/13 07:07:28;;;;;;;;;;;8.20;99.90;;;;;;1962777;73;20152;-76
2021/10/13 07:09:55;;;;;;;;;;;8.20;99.90;;;;;;1959190;72;20268;-76
2021/10/13 07:12:22;;;;;;;;;;;8.20;99.90;;;;;;1957879;73;20166;-76
2021/10/13 07:14:48;;;;;;;;;;;8.40;99.90;;;;;;1966346;72;20378;-77
2021/10/13 07:17:16;;;;;;;;;;;8.50;99.90;;;;;;1968014;71;20209;-77
2021/10/13 07:19:43;;;;;;;;;;;8.60;99.90;;;;;;1964552;72;20490;-76
2021/10/13 07:22:10;;;;;;;;;;;8.70;99.90;;;;;;1969427;71;20197;-74
2021/10/13 07:24:37;;;;;;;;;;;8.70;99.90;;;;;;1956898;72;20400;-75
2021/10/13 07:27:03;;;;;;;;;;;8.80;99.90;;;;;;1952704;72;20157;-76
2021/10/13 07:29:30;;;;;;;;;;;8.90;99.90;;;;;;1959849;72;20217;-75
2021/10/13 07:31:57;;;;;;;;;;;8.90;99.90;;;;;;1957125;71;20390;-75
2021/10/13 07:34:24;;;;;;;;;;;8.90;99.90;;;;;;1960636;73;20250;-75
2021/10/13 07:36:51;;;;;;;;;;;8.90;99.90;;;;;;1961784;73;20111;-75
2021/10/13 07:39:17;;;;;;;;;;;8.90;99.90;;;;;;1959404;72;20172;-75
2021/10/13 07:41:44;;;;;;;;;;;9.10;99.90;;;;;;1964361;73;20181;-74
2021/10/13 07:44:11;;;;;;;;;;;9.00;99.90;;;;;;1957863;71;20118;-75
2021/10/13 07:46:38;;;;;;;;;;;9.00;99.90;;;;;;1959129;73;20164;-74
2021/10/13 07:49:05;;;;;;;;;;;9.00;99.90;;;;;;1969094;72;20185;-74
2021/10/13 07:51:31;;;;;;;;;;;9.10;99.90;;;;;;1960709;73;20228;-74
2021/10/13 07:53:59;;;;;;;;;;;9.10;99.90;;;;;;1955405;73;20169;-75
2021/10/13 07:56:26;;;;;;;;;;;9.10;99.90;;;;;;1963841;73;20173;-75
2021/10/13 07:58:52;;;;;;;;;;;9.20;99.90;;;;;;1965999;72;20189;-75
2021/10/13 08:01:19;;;;;;;;;;;9.20;99.90;;;;;;1966746;72;20132;-75
2021/10/13 08:03:46;;;;;;;;;;;9.30;99.90;;;;;;1961299;73;20215;-74
2021/10/13 08:06:13;;;;;;;;;;;9.40;99.90;;;;;;1965947;73;20211;-74
2021/10/13 08:08:40;;;;;;;;;;;9.30;99.90;;;;;;1964882;73;20198;-74
2021/10/13 08:11:07;;;;;;;;;;;9.40;99.90;;;;;;1967167;71;20237;-73
2021/10/13 08:13:34;;;;;;;;;;;9.50;99.90;;;;;;1964701;71;20208;-73
2021/10/13 08:16:02;;;;;;;;;;;9.60;99.90;;;;;;1963093;73;20404;-73
2021/10/13 08:18:29;;;;;;;;;;;9.60;99.90;;;;;;1957845;73;20449;-75
2021/10/13 08:20:56;;;;;;;;;;;9.70;99.90;;;;;;1962962;72;20427;-75
2021/10/13 08:23:24;;;;;;;;;;;9.80;99.90;;;;;;1962386;72;20189;-74
2021/10/13 08:25:54;;;;;;;;;;;10.00;99.90;;;;;;1958847;73;20206;-76
2021/10/13 08:28:19;;;;;;;;;;;10.10;99.90;;;;;;1957746;73;20713;-76
2021/10/13 08:30:46;;;;;;;;;;;10.20;99.90;;;;;;1961770;71;20182;-72
2021/10/13 08:33:12;;;;;;;;;;;10.30;99.90;;;;;;1945306;72;20269;-70
2021/10/13 08:35:39;;;;;;;;;;;10.30;99.90;;;;;;1940328;73;20525;-71
2021/10/13 08:38:06;;;;;;;;;;;10.30;99.90;;;;;;1943493;73;20204;-71
2021/10/13 08:40:33;;;;;;;;;;;10.40;99.90;;;;;;1944701;73;20642;-73
2021/10/13 08:43:00;;;;;;;;;;;10.40;99.90;;;;;;1939440;73;20216;-72
2021/10/13 08:45:29;;;;;;;;;;;10.40;99.90;;;;;;1942306;73;20294;-72
2021/10/13 08:47:56;;;;;;;;;;;10.50;99.90;;;;;;1940666;73;20539;-72
2021/10/13 08:50:24;;;;;;;;;;;10.40;99.90;;;;;;1938064;73;20483;-72
2021/10/13 08:52:55;;;;;;;;;;;10.40;99.90;;;;;;1935338;73;20487;-73
2021/10/13 08:55:22;;;;;;;;;;;10.50;99.90;;;;;;1934784;72;20208;-72
2021/10/13 08:57:50;;;;;;;;;;;10.50;99.90;;;;;;1941062;73;20206;-72
2021/10/13 09:00:18;;;;;;;;;;;10.50;99.90;;;;;;1942942;72;20118;-72
2021/10/13 09:02:45;;;;;;;;;;;10.50;99.90;;;;;;1942500;73;20114;-72
2021/10/13 09:05:13;;;;;;;;;;;10.50;99.90;;;;;;1943120;73;20205;-72
2021/10/13 09:07:42;;;;;;;;;;;10.50;99.90;;;;;;1938513;73;20508;-72
2021/10/13 09:10:09;;;;;;;;;;;10.60;99.90;;;;;;1938553;72;20159;-73
2021/10/13 09:12:36;;;;;;;;;;;10.60;99.90;;;;;;1939140;73;20176;-71
2021/10/13 09:15:08;;;;;;;;;;;10.70;99.90;;;;;;1941165;73;20123;-72
2021/10/13 09:17:53;;;;;;;;;;;10.70;99.90;;;;;;1937233;73;20171;-71
2021/10/13 09:20:21;;;;;;;;;;;10.80;99.90;;;;;;1940259;72;20131;-73
2021/10/13 09:22:55;;;;;;;;;;;10.90;99.90;;;;;;1937265;73;20616;-73
2021/10/13 09:25:22;;;;;;;;;;;10.90;99.90;;;;;;1939534;73;20516;-72
2021/10/13 09:27:49;;;;;;;;;;;10.90;99.90;;;;;;1942191;73;20223;-73
2021/10/13 09:30:17;;;;;;;;;;;10.90;99.90;;;;;;1941937;73;20129;-73
2021/10/13 09:32:45;;;;;;;;;;;11.00;99.90;;;;;;1925225;73;20175;-72
2021/10/13 09:35:11;;;;;;;;;;;11.10;99.90;;;;;;1924682;74;20146;-73
2021/10/13 09:37:46;;;;;;;;;;;11.30;99.90;;;;;;1921129;74;20174;-72
2021/10/13 09:40:15;;;;;;;;;;;11.40;99.90;;;;;;1917897;74;20158;-73
2021/10/13 09:42:42;;;;;;;;;;;11.40;99.90;;;;;;1920238;73;20274;-73
2021/10/13 09:45:13;;;;;;;;;;;11.60;99.90;;;;;;1921038;74;20324;-72
2021/10/13 09:47:39;;;;;;;;;;;11.60;99.90;;;;;;1922451;74;20503;-72
2021/10/13 09:50:11;;;;;;;;;;;11.80;99.90;;;;;;1922420;74;20165;-73
2021/10/13 09:52:37;;;;;;;;;;;11.80;99.90;;;;;;1923687;74;20244;-73
2021/10/13 09:55:07;;;;;;;;;;;11.80;99.90;;;;;;1920853;73;20467;-73
2021/10/13 09:57:35;;;;;;;;;;;11.90;99.90;;;;;;1924847;73;20430;-74
2021/10/13 10:00:03;;;;;;;;;;;12.00;99.90;;;;;;1920593;73;20194;-73
2021/10/13 10:02:38;;;;;;;;;;;12.00;99.90;;;;;;1919439;73;20149;-73
2021/10/13 10:05:09;;;;;;;;;;;12.10;99.90;;;;;;1913032;74;20190;-74
2021/10/13 10:07:41;;;;;;;;;;;12.10;99.90;;;;;;1916879;73;20177;-72
2021/10/13 10:10:09;;;;;;;;;;;12.00;99.90;;;;;;1915482;73;20239;-74
2021/10/13 10:12:49;;;;;;;;;;;12.00;99.90;;;;;;1914058;73;20201;-74
2021/10/13 10:15:17;;;;;;;;;;;12.10;99.90;;;;;;1910412;74;20149;-74
2021/10/13 10:17:44;;;;;;;;;;;12.10;99.90;;;;;;1916589;74;20249;-74
2021/10/13 10:20:13;;;;;;;;;;;12.00;99.90;;;;;;1922941;74;20860;-73
2021/10/13 10:22:46;;;;;;;;;;;12.00;99.90;;;;;;1919228;73;20236;-73
2021/10/13 10:25:13;;;;;;;;;;;11.90;99.90;;;;;;1914484;74;20178;-72
2021/10/13 10:27:40;;;;;;;;;;;11.90;99.90;;;;;;1921293;74;20508;-73
2021/10/13 10:30:11;;;;;;;;;;;11.90;99.90;;;;;;1913837;74;20121;-73
2021/10/13 10:32:39;;;;;;;;;;;11.90;99.90;;;;;;1941590;73;20175;-74
2021/10/13 10:35:08;;;;;;;;;;;11.90;99.90;;;;;;1946171;73;20170;-72
2021/10/13 10:37:42;;;;;;;;;;;11.90;99.90;;;;;;1954500;72;20147;-73
2021/10/13 10:40:10;;;;;;;;;;;12.00;99.90;;;;;;1949381;73;20207;-74
2021/10/13 10:42:51;;;;;;;;;;;11.90;99.90;;;;;;1958539;72;20112;-73
2021/10/13 10:45:19;;;;;;;;;;;12.00;99.90;;;;;;1950736;73;20199;-70
2021/10/13 10:47:50;;;;;;;;;;;12.00;99.90;;;;;;1954909;73;20182;-73
2021/10/13 10:50:18;;;;;;;;;;;12.00;99.90;;;;;;1944539;73;20167;-73
2021/10/13 10:53:02;;;;;;;;;;;12.10;99.90;;;;;;1947558;72;20180;-72
2021/10/13 10:55:35;;;;;;;;;;;12.20;99.90;;;;;;1913929;74;20165;-73
2021/10/13 10:58:20;;;;;;;;;;;12.10;99.90;;;;;;1940312;73;20188;-73
2021/10/13 11:00:49;;;;;;;;;;;12.10;99.90;;;;;;1956384;73;20201;-73
2021/10/13 11:03:24;;;;;;;;;;;12.10;99.90;;;;;;1950125;73;20151;-72
2021/10/13 11:05:52;;;;;;;;;;;12.10;99.90;;;;;;1953498;73;20174;-73
2021/10/13 11:08:19;;;;;;;;;;;12.10;99.90;;;;;;1961611;72;20124;-73
2021/10/13 11:10:46;;;;;;;;;;;12.20;99.90;;;;;;1949222;73;20127;-73
2021/10/13 11:13:13;;;;;;;;;;;12.30;99.90;;;;;;1954080;73;20174;-73
2021/10/13 11:15:41;;;;;;;;;;;12.30;99.90;;;;;;1952825;73;20216;-72
2021/10/13 11:18:12;;;;;;;;;;;12.30;99.90;;;;;;1953505;72;20163;-72
2021/10/13 11:20:39;;;;;;;;;;;12.40;99.90;;;;;;1955290;73;20280;-72
2021/10/13 11:23:07;;;;;;;;;;;12.50;99.90;;;;;;1954290;73;20112;-74
2021/10/13 11:25:34;;;;;;;;;;;12.60;99.90;;;;;;1953513;73;20174;-72
2021/10/13 11:28:08;;;;;;;;;;;12.70;99.90;;;;;;1958306;73;20127;-73
2021/10/13 11:30:43;;;;;;;;;;;12.90;99.90;;;;;;1944537;73;20182;-73
2021/10/13 11:33:11;;;;;;;;;;;13.10;99.90;;;;;;1950687;73;20188;-72
2021/10/13 11:35:38;;;;;;;;;;;13.10;99.90;;;;;;1950276;72;20182;-73
2021/10/13 11:38:06;;;;;;;;;;;13.00;99.90;;;;;;1947696;72;20564;-73
2021/10/13 11:40:34;;;;;;;;;;;13.00;99.90;;;;;;1948684;72;20920;-72
2021/10/13 11:43:02;;;;;;;;;;;13.00;99.90;;;;;;1946198;73;20119;-74
2021/10/13 11:45:29;;;;;;;;;;;13.00;99.90;;;;;;1949427;73;20155;-72
2021/10/13 11:47:57;;;;;;;;;;;12.90;99.90;;;;;;1952562;73;20163;-73
2021/10/13 11:50:24;;;;;;;;;;;12.80;99.90;;;;;;1951480;72;20481;-72
2021/10/13 11:52:55;;;;;;;;;;;12.70;99.90;;;;;;1954574;73;20151;-72
2021/10/13 11:55:26;;;;;;;;;;;12.70;99.90;;;;;;1949342;73;20188;-72
2021/10/13 11:57:53;;;;;;;;;;;12.70;99.90;;;;;;1952393;73;20506;-74
2021/10/13 12:00:21;;;;;;;;;;;12.70;99.90;;;;;;1955492;72;20216;-71
2021/10/13 12:03:06;;;;;;;;;;;12.60;99.90;;;;;;1951740;73;20156;-72
2021/10/13 12:05:34;;;;;;;;;;;12.50;99.90;;;;;;1951316;73;20159;-71
2021/10/13 12:08:02;;;;;;;;;;;12.40;99.90;;;;;;1947221;73;20150;-72
2021/10/13 12:10:36;;;;;;;;;;;12.30;99.90;;;;;;1950907;72;20450;-72
2021/10/13 12:13:08;;;;;;;;;;;12.30;99.90;;;;;;1952074;73;20166;-72
2021/10/13 12:15:34;;;;;;;;;;;12.30;99.90;;;;;;1948738;73;20235;-71
2021/10/13 12:18:08;;;;;;;;;;;12.40;99.90;;;;;;1949995;72;20122;-72
2021/10/13 12:20:35;;;;;;;;;;;12.50;99.90;;;;;;1942238;73;20176;-71
2021/10/13 12:23:03;;;;;;;;;;;12.60;99.90;;;;;;1950184;73;20160;-71
2021/10/13 12:25:31;;;;;;;;;;;12.80;99.90;;;;;;1945423;73;20168;-72
2021/10/13 12:28:00;;;;;;;;;;;12.90;99.90;;;;;;1946593;73;20236;-71
2021/10/13 12:30:34;;;;;;;;;;;13.00;99.90;;;;;;1960195;72;20205;-72
2021/10/13 12:33:02;;;;;;;;;;;13.00;99.90;;;;;;1956331;73;20182;-71
2021/10/13 12:35:30;;;;;;;;;;;13.20;99.90;;;;;;1953419;73;20176;-72
2021/10/13 12:37:56;;;;;;;;;;;13.40;99.90;;;;;;1946766;73;20153;-72
2021/10/13 12:40:23;;;;;;;;;;;13.30;99.90;;;;;;1951022;72;20186;-72
2021/10/13 12:42:50;;;;;;;;;;;13.40;99.90;;;;;;1951369;73;20395;-71
2021/10/13 12:45:24;;;;;;;;;;;13.50;99.90;;;;;;1949748;73;20174;-72
2021/10/13 12:47:52;;;;;;;;;;;13.50;99.90;;;;;;1945919;73;20169;-72
2021/10/13 12:50:19;;;;;;;;;;;13.90;99.90;;;;;;1943321;73;20182;-72
2021/10/13 12:52:46;;;;;;;;;;;14.00;99.90;;;;;;1947859;73;20148;-71
2021/10/13 12:55:13;;;;;;;;;;;13.90;99.90;;;;;;1947397;73;20384;-71
2021/10/13 12:57:39;;;;;;;;;;;13.70;99.90;;;;;;1949198;73;20200;-71
2021/10/13 13:00:07;;;;;;;;;;;13.60;99.90;;;;;;1950244;72;20407;-72
2021/10/13 13:02:33;;;;;;;;;;;13.50;99.90;;;;;;1945471;73;20175;-71
2021/10/13 13:05:00;;;;;;;;;;;13.60;99.90;;;;;;1950404;73;20127;-71
2021/10/13 13:07:27;;;;;;;;;;;13.60;99.90;;;;;;1948142;73;20166;-72
2021/10/13 13:09:54;;;;;;;;;;;13.70;99.90;;;;;;1948474;72;20204;-72
2021/10/13 13:12:21;;;;;;;;;;;13.60;99.90;;;;;;1955479;72;20150;-72
2021/10/13 13:14:47;;;;;;;;;;;13.50;99.90;;;;;;1951019;73;20184;-72
2021/10/13 13:17:14;;;;;;;;;;;13.50;99.90;;;;;;1946696;73;20125;-72
2021/10/13 13:19:42;;;;;;;;;;;13.40;99.90;;;;;;1950103;72;20190;-71
2021/10/13 13:22:09;;;;;;;;;;;13.30;99.90;;;;;;1951425;72;20650;-74
2021/10/13 13:24:36;;;;;;;;;;;13.30;99.90;;;;;;1948635;73;20185;-71
2021/10/13 13:27:03;;;;;;;;;;;13.30;99.90;;;;;;1947817;73;20121;-73
2021/10/13 13:29:30;;;;;;;;;;;13.40;99.90;;;;;;1945438;73;20477;-73
2021/10/13 13:31:57;;;;;;;;;;;13.50;99.90;;;;;;1946441;72;20217;-73
2021/10/13 13:34:24;;;;;;;;;;;13.60;99.90;;;;;;1953776;72;20324;-73
2021/10/13 13:36:51;;;;;;;;;;;13.80;99.90;;;;;;1952542;73;20151;-73
2021/10/13 13:39:18;;;;;;;;;;;13.80;99.90;;;;;;1952379;73;20202;-73
2021/10/13 13:41:45;;;;;;;;;;;13.70;99.90;;;;;;1952618;72;20410;-74
2021/10/13 13:44:12;;;;;;;;;;;13.60;99.90;;;;;;1956666;72;20146;-73
2021/10/13 13:46:39;;;;;;;;;;;13.50;99.90;;;;;;1952962;73;20172;-74
2021/10/13 13:49:06;;;;;;;;;;;13.40;99.90;;;;;;1952960;73;20235;-73
2021/10/13 13:51:33;;;;;;;;;;;13.30;99.90;;;;;;1952042;73;20153;-73
2021/10/13 13:54:00;;;;;;;;;;;13.30;99.90;;;;;;1951254;72;20115;-74
2021/10/13 13:56:26;;;;;;;;;;;13.20;99.90;;;;;;1956305;73;20207;-72
2021/10/13 13:58:53;;;;;;;;;;;13.20;99.90;;;;;;1958379;73;20119;-73
2021/10/13 14:01:20;;;;;;;;;;;13.20;99.90;;;;;;1958567;72;20188;-71
2021/10/13 14:03:47;;;;;;;;;;;13.10;99.90;;;;;;1960424;72;20177;-72
2021/10/13 14:06:14;;;;;;;;;;;13.00;99.90;;;;;;1959636;71;20181;-72
2021/10/13 14:08:41;;;;;;;;;;;13.00;99.90;;;;;;1949099;73;20206;-73
2021/10/13 14:11:07;;;;;;;;;;;13.00;99.90;;;;;;1956220;73;20213;-73
2021/10/13 14:13:34;;;;;;;;;;;13.00;99.90;;;;;;1956163;72;20790;-72
2021/10/13 14:16:01;;;;;;;;;;;13.00;99.90;;;;;;1960225;73;20162;-73
2021/10/13 14:18:29;;;;;;;;;;;13.00;99.90;;;;;;1951235;73;20169;-73
2021/10/13 14:20:56;;;;;;;;;;;13.00;99.90;;;;;;1953497;72;20218;-74
2021/10/13 14:23:23;;;;;;;;;;;12.90;99.90;;;;;;1957118;72;20473;-73
2021/10/13 14:25:50;;;;;;;;;;;12.90;99.90;;;;;;1956436;73;20244;-73
2021/10/13 14:28:16;;;;;;;;;;;13.00;99.90;;;;;;1950848;73;20214;-73